Orlando, Florida
Current Conditions -  °F | °C
As of 6:53 AM on Wednesday 26 Nov 2014 (Local Time) from KORL Reporting Station
Light Rain Light Rain  
Wind Chill: 55°   Ceiling: 700
Heat Index: 55°   Visibility: 10mi
Dew Point: 54°   Wind: 23mph
Humidity: 94%   Direction: 310°NW
Pressure: 30.03"   Gusts: 31mph
Location:  28.54°N, 81.38°W
Report Text: KORL 261153Z 31020G27KT 10SM -RA BKN007 OVC012 13/12 A3003
Loading
Personal Weather Stations






























Interactive Weather Map New forecast layout! Learn more

10-Day Weather Forecast

Advertisements
Track Severe Weather on mobile